sensor_id;sensor_type;location;lat;lon;timestamp;temperature;humidity
814;DHT22;389;48.710;9.392;2022-11-20T00:01:24;7.50;99.90
814;DHT22;389;48.710;9.392;2022-11-20T00:03:55;7.50;99.90
814;DHT22;389;48.710;9.392;2022-11-20T00:06:22;7.60;99.90
814;DHT22;389;48.710;9.392;2022-11-20T00:08:48;7.60;99.90
814;DHT22;389;48.710;9.392;2022-11-20T00:11:19;7.50;99.90
814;DHT22;389;48.710;9.392;2022-11-20T00:13:47;7.40;99.90
814;DHT22;389;48.710;9.392;2022-11-20T00:16:14;7.30;99.90
814;DHT22;389;48.710;9.392;2022-11-20T00:18:40;7.30;99.90
814;DHT22;389;48.710;9.392;2022-11-20T00:21:11;7.20;99.90
814;DHT22;389;48.710;9.392;2022-11-20T00:23:37;7.10;99.90
814;DHT22;389;48.710;9.392;2022-11-20T00:26:07;7.10;99.90
814;DHT22;389;48.710;9.392;2022-11-20T00:28:34;7.00;99.90
814;DHT22;389;48.710;9.392;2022-11-20T00:31:04;7.00;99.90
814;DHT22;389;48.710;9.392;2022-11-20T00:33:30;6.90;99.90
814;DHT22;389;48.710;9.392;2022-11-20T00:36:01;7.00;99.90
814;DHT22;389;48.710;9.392;2022-11-20T00:38:27;6.80;99.90
814;DHT22;389;48.710;9.392;2022-11-20T00:40:57;6.80;99.90
814;DHT22;389;48.710;9.392;2022-11-20T00:43:23;6.80;99.90
814;DHT22;389;48.710;9.392;2022-11-20T00:45:49;6.70;99.90
814;DHT22;389;48.710;9.392;2022-11-20T00:48:15;6.70;99.90
814;DHT22;389;48.710;9.392;2022-11-20T00:50:41;6.70;99.90
814;DHT22;389;48.710;9.392;2022-11-20T00:53:07;6.70;99.90
814;DHT22;389;48.710;9.392;2022-11-20T00:55:32;6.70;99.90
814;DHT22;389;48.710;9.392;2022-11-20T00:57:58;6.70;99.90
814;DHT22;389;48.710;9.392;2022-11-20T01:00:23;6.80;99.90
814;DHT22;389;48.710;9.392;2022-11-20T01:02:49;6.70;99.90
814;DHT22;389;48.710;9.392;2022-11-20T01:05:14;6.80;99.90
814;DHT22;389;48.710;9.392;2022-11-20T01:07:40;6.80;99.90
814;DHT22;389;48.710;9.392;2022-11-20T01:10:06;6.80;99.90
814;DHT22;389;48.710;9.392;2022-11-20T01:12:32;6.80;99.90
814;DHT22;389;48.710;9.392;2022-11-20T01:14:57;6.90;99.90
814;DHT22;389;48.710;9.392;2022-11-20T01:17:23;7.00;99.90
814;DHT22;389;48.710;9.392;2022-11-20T01:19:49;7.10;99.90
814;DHT22;389;48.710;9.392;2022-11-20T01:22:15;6.90;99.90
814;DHT22;389;48.710;9.392;2022-11-20T01:24:41;6.90;99.90
814;DHT22;389;48.710;9.392;2022-11-20T01:27:06;6.90;99.90
814;DHT22;389;48.710;9.392;2022-11-20T01:29:32;7.00;99.90
814;DHT22;389;48.710;9.392;2022-11-20T01:31:58;7.00;99.90
814;DHT22;389;48.710;9.392;2022-11-20T01:34:23;7.00;99.90
814;DHT22;389;48.710;9.392;2022-11-20T01:36:51;7.10;99.90
814;DHT22;389;48.710;9.392;2022-11-20T01:39:22;7.10;99.90
814;DHT22;389;48.710;9.392;2022-11-20T01:41:49;7.10;99.90
814;DHT22;389;48.710;9.392;2022-11-20T01:47:09;7.30;99.90
814;DHT22;389;48.710;9.392;2022-11-20T01:49:47;7.20;99.90
814;DHT22;389;48.710;9.392;2022-11-20T01:52:21;7.30;99.90
814;DHT22;389;48.710;9.392;2022-11-20T01:55:05;7.30;99.90
814;DHT22;389;48.710;9.392;2022-11-20T01:57:33;7.30;99.90
814;DHT22;389;48.710;9.392;2022-11-20T02:00:04;7.30;99.90
814;DHT22;389;48.710;9.392;2022-11-20T02:02:31;7.30;99.90
814;DHT22;389;48.710;9.392;2022-11-20T02:05:02;7.30;99.90
814;DHT22;389;48.710;9.392;2022-11-20T02:07:30;7.30;99.90
814;DHT22;389;48.710;9.392;2022-11-20T02:09:56;7.20;99.90
814;DHT22;389;48.710;9.392;2022-11-20T02:12:21;7.20;99.90
814;DHT22;389;48.710;9.392;2022-11-20T02:15:06;7.10;99.90
814;DHT22;389;48.710;9.392;2022-11-20T02:17:31;7.10;99.90
814;DHT22;389;48.710;9.392;2022-11-20T02:19:57;7.20;99.90
814;DHT22;389;48.710;9.392;2022-11-20T02:22:33;7.00;99.90
814;DHT22;389;48.710;9.392;2022-11-20T02:25:02;6.90;99.90
814;DHT22;389;48.710;9.392;2022-11-20T02:27:28;6.90;99.90
814;DHT22;389;48.710;9.392;2022-11-20T02:29:58;6.90;99.90
814;DHT22;389;48.710;9.392;2022-11-20T02:32:34;6.80;99.90
814;DHT22;389;48.710;9.392;2022-11-20T02:37:45;6.80;99.90
814;DHT22;389;48.710;9.392;2022-11-20T02:40:12;6.80;99.90
814;DHT22;389;48.710;9.392;2022-11-20T02:42:38;6.80;99.90
814;DHT22;389;48.710;9.392;2022-11-20T02:45:04;6.80;99.90
814;DHT22;389;48.710;9.392;2022-11-20T02:47:30;6.80;99.90
814;DHT22;389;48.710;9.392;2022-11-20T02:49:56;6.80;99.90
814;DHT22;389;48.710;9.392;2022-11-20T02:52:22;6.80;99.90
814;DHT22;389;48.710;9.392;2022-11-20T02:54:47;6.80;99.90
814;DHT22;389;48.710;9.392;2022-11-20T02:57:14;6.80;99.90
814;DHT22;389;48.710;9.392;2022-11-20T02:59:39;6.90;99.90
814;DHT22;389;48.710;9.392;2022-11-20T03:02:05;6.90;99.90
814;DHT22;389;48.710;9.392;2022-11-20T03:04:31;6.80;99.90
814;DHT22;389;48.710;9.392;2022-11-20T03:06:56;6.90;99.90
814;DHT22;389;48.710;9.392;2022-11-20T03:09:22;6.90;99.90
814;DHT22;389;48.710;9.392;2022-11-20T03:11:48;6.90;99.90
814;DHT22;389;48.710;9.392;2022-11-20T03:14:13;6.90;99.90
814;DHT22;389;48.710;9.392;2022-11-20T03:16:39;7.00;99.90
814;DHT22;389;48.710;9.392;2022-11-20T03:19:05;7.00;99.90
814;DHT22;389;48.710;9.392;2022-11-20T03:21:33;6.90;99.90
814;DHT22;389;48.710;9.392;2022-11-20T03:23:59;6.90;99.90
814;DHT22;389;48.710;9.392;2022-11-20T03:26:25;6.90;99.90
814;DHT22;389;48.710;9.392;2022-11-20T03:28:56;6.70;99.90
814;DHT22;389;48.710;9.392;2022-11-20T03:31:43;7.00;99.90
814;DHT22;389;48.710;9.392;2022-11-20T03:34:10;7.00;99.90
814;DHT22;389;48.710;9.392;2022-11-20T03:36:41;7.00;99.90
814;DHT22;389;48.710;9.392;2022-11-20T03:39:07;7.10;99.90
814;DHT22;389;48.710;9.392;2022-11-20T03:41:37;7.20;99.90
814;DHT22;389;48.710;9.392;2022-11-20T03:44:05;7.10;99.90
814;DHT22;389;48.710;9.392;2022-11-20T03:46:31;7.10;99.90
814;DHT22;389;48.710;9.392;2022-11-20T03:48:57;7.20;99.90
814;DHT22;389;48.710;9.392;2022-11-20T03:51:25;7.20;99.90
814;DHT22;389;48.710;9.392;2022-11-20T03:53:53;7.30;99.90
814;DHT22;389;48.710;9.392;2022-11-20T03:56:22;7.30;99.90
814;DHT22;389;48.710;9.392;2022-11-20T03:58:48;7.30;99.90
814;DHT22;389;48.710;9.392;2022-11-20T04:01:16;7.30;99.90
814;DHT22;389;48.710;9.392;2022-11-20T04:03:43;7.30;99.90
814;DHT22;389;48.710;9.392;2022-11-20T04:06:13;7.30;99.90
814;DHT22;389;48.710;9.392;2022-11-20T04:08:40;7.30;99.90
814;DHT22;389;48.710;9.392;2022-11-20T04:11:15;7.30;99.90
814;DHT22;389;48.710;9.392;2022-11-20T04:13:42;7.30;99.90
814;DHT22;389;48.710;9.392;2022-11-20T04:16:09;7.30;99.90
814;DHT22;389;48.710;9.392;2022-11-20T04:18:35;7.30;99.90
814;DHT22;389;48.710;9.392;2022-11-20T04:21:02;7.30;99.90
814;DHT22;389;48.710;9.392;2022-11-20T04:23:28;7.30;99.90
814;DHT22;389;48.710;9.392;2022-11-20T04:25:53;7.30;99.90
814;DHT22;389;48.710;9.392;2022-11-20T04:28:19;7.30;99.90
814;DHT22;389;48.710;9.392;2022-11-20T04:30:45;7.30;99.90
814;DHT22;389;48.710;9.392;2022-11-20T04:33:11;7.30;99.90
814;DHT22;389;48.710;9.392;2022-11-20T04:35:37;7.30;99.90
814;DHT22;389;48.710;9.392;2022-11-20T04:38:03;7.20;99.90
814;DHT22;389;48.710;9.392;2022-11-20T04:56:02;7.30;99.90
814;DHT22;389;48.710;9.392;2022-11-20T04:58:28;7.30;99.90
814;DHT22;389;48.710;9.392;2022-11-20T05:01:04;7.30;99.90
814;DHT22;389;48.710;9.392;2022-11-20T05:03:30;7.30;99.90
814;DHT22;389;48.710;9.392;2022-11-20T05:06:07;7.40;99.90
814;DHT22;389;48.710;9.392;2022-11-20T05:08:32;7.30;99.90
814;DHT22;389;48.710;9.392;2022-11-20T05:11:06;7.30;99.90
814;DHT22;389;48.710;9.392;2022-11-20T05:13:32;7.30;99.90
814;DHT22;389;48.710;9.392;2022-11-20T05:33:58;7.40;99.40
814;DHT22;389;48.710;9.392;2022-11-20T05:46:38;7.50;99.20
814;DHT22;389;48.710;9.392;2022-11-20T05:49:03;7.60;99.20
814;DHT22;389;48.710;9.392;2022-11-20T05:51:29;7.50;99.20
814;DHT22;389;48.710;9.392;2022-11-20T05:53:58;7.60;98.80
814;DHT22;389;48.710;9.392;2022-11-20T05:56:24;7.60;98.70
814;DHT22;389;48.710;9.392;2022-11-20T05:58:50;7.60;98.60
814;DHT22;389;48.710;9.392;2022-11-20T06:01:21;7.60;98.50
814;DHT22;389;48.710;9.392;2022-11-20T06:03:47;7.70;98.50
814;DHT22;389;48.710;9.392;2022-11-20T06:06:15;7.70;98.40
814;DHT22;389;48.710;9.392;2022-11-20T06:08:49;7.70;98.30
814;DHT22;389;48.710;9.392;2022-11-20T06:12:10;7.70;98.20
814;DHT22;389;48.710;9.392;2022-11-20T06:14:42;7.80;98.20
814;DHT22;389;48.710;9.392;2022-11-20T06:17:43;7.80;98.30
814;DHT22;389;48.710;9.392;2022-11-20T06:20:34;7.80;98.20
814;DHT22;389;48.710;9.392;2022-11-20T06:23:39;7.80;98.00
814;DHT22;389;48.710;9.392;2022-11-20T06:26:26;7.90;98.10
814;DHT22;389;48.710;9.392;2022-11-20T06:28:54;7.60;98.00
814;DHT22;389;48.710;9.392;2022-11-20T06:31:31;7.80;98.00
814;DHT22;389;48.710;9.392;2022-11-20T06:37:19;7.60;97.90
814;DHT22;389;48.710;9.392;2022-11-20T06:39:47;7.80;98.10
814;DHT22;389;48.710;9.392;2022-11-20T06:42:13;7.80;98.10
814;DHT22;389;48.710;9.392;2022-11-20T11:00:34;9.60;97.40
814;DHT22;389;48.710;9.392;2022-11-20T11:07:07;9.30;97.80
814;DHT22;389;48.710;9.392;2022-11-20T11:12:53;9.40;98.20
814;DHT22;389;48.710;9.392;2022-11-20T11:32:10;9.40;98.60
814;DHT22;389;48.710;9.392;2022-11-20T11:38:51;9.40;98.60
814;DHT22;389;48.710;9.392;2022-11-20T11:48:16;9.80;98.70
814;DHT22;389;48.710;9.392;2022-11-20T11:51:10;9.90;98.60
814;DHT22;389;48.710;9.392;2022-11-20T11:54:45;10.00;97.60
814;DHT22;389;48.710;9.392;2022-11-20T12:00:56;10.10;97.30
814;DHT22;389;48.710;9.392;2022-11-20T12:03:42;10.10;96.70
814;DHT22;389;48.710;9.392;2022-11-20T12:06:31;10.20;96.60
814;DHT22;389;48.710;9.392;2022-11-20T12:09:08;10.30;96.70
814;DHT22;389;48.710;9.392;2022-11-20T12:11:49;10.40;96.50
814;DHT22;389;48.710;9.392;2022-11-20T12:14:43;10.50;95.90
814;DHT22;389;48.710;9.392;2022-11-20T12:17:12;10.60;95.90
814;DHT22;389;48.710;9.392;2022-11-20T12:19:38;10.70;95.80
814;DHT22;389;48.710;9.392;2022-11-20T12:27:36;10.80;95.30
814;DHT22;389;48.710;9.392;2022-11-20T12:30:08;10.70;95.30
814;DHT22;389;48.710;9.392;2022-11-20T12:47:24;11.40;94.60
814;DHT22;389;48.710;9.392;2022-11-20T12:49:56;11.60;94.60
814;DHT22;389;48.710;9.392;2022-11-20T12:52:53;11.50;94.50
814;DHT22;389;48.710;9.392;2022-11-20T12:58:29;11.60;94.50
814;DHT22;389;48.710;9.392;2022-11-20T13:01:10;11.60;94.50
814;DHT22;389;48.710;9.392;2022-11-20T13:04:55;11.70;94.40
814;DHT22;389;48.710;9.392;2022-11-20T13:06:55;11.70;93.50
814;DHT22;389;48.710;9.392;2022-11-20T13:09:23;11.60;92.00
814;DHT22;389;48.710;9.392;2022-11-20T13:12:13;11.60;91.40
814;DHT22;389;48.710;9.392;2022-11-20T13:15:02;11.70;91.80
814;DHT22;389;48.710;9.392;2022-11-20T13:17:42;11.70;91.80
814;DHT22;389;48.710;9.392;2022-11-20T13:20:16;11.80;91.40
814;DHT22;389;48.710;9.392;2022-11-20T13:22:51;11.80;90.80
814;DHT22;389;48.710;9.392;2022-11-20T13:25:38;11.70;90.20
814;DHT22;389;48.710;9.392;2022-11-20T13:30:35;11.60;89.20
814;DHT22;389;48.710;9.392;2022-11-20T13:33:06;11.60;89.70
814;DHT22;389;48.710;9.392;2022-11-20T13:35:40;11.50;90.00
814;DHT22;389;48.710;9.392;2022-11-20T13:38:10;11.50;90.30
814;DHT22;389;48.710;9.392;2022-11-20T13:40:38;11.50;90.30
814;DHT22;389;48.710;9.392;2022-11-20T13:46:02;11.60;90.10
814;DHT22;389;48.710;9.392;2022-11-20T13:48:40;11.60;89.80
814;DHT22;389;48.710;9.392;2022-11-20T13:54:23;11.60;89.60
814;DHT22;389;48.710;9.392;2022-11-20T14:01:58;11.60;87.80
814;DHT22;389;48.710;9.392;2022-11-20T14:04:36;11.60;88.00
814;DHT22;389;48.710;9.392;2022-11-20T14:07:05;11.60;88.70
814;DHT22;389;48.710;9.392;2022-11-20T14:09:32;11.50;88.40
814;DHT22;389;48.710;9.392;2022-11-20T14:11:58;11.50;88.40
814;DHT22;389;48.710;9.392;2022-11-20T14:14:26;11.50;88.60
814;DHT22;389;48.710;9.392;2022-11-20T14:17:05;11.50;88.40
814;DHT22;389;48.710;9.392;2022-11-20T14:19:31;11.50;89.30
814;DHT22;389;48.710;9.392;2022-11-20T14:22:26;11.50;89.70
814;DHT22;389;48.710;9.392;2022-11-20T14:25:06;11.60;89.90
814;DHT22;389;48.710;9.392;2022-11-20T14:27:40;11.50;90.20
814;DHT22;389;48.710;9.392;2022-11-20T14:30:14;11.40;90.20
814;DHT22;389;48.710;9.392;2022-11-20T14:32:42;11.40;90.20
814;DHT22;389;48.710;9.392;2022-11-20T14:35:13;11.40;90.40
814;DHT22;389;48.710;9.392;2022-11-20T14:37:40;11.30;90.50
814;DHT22;389;48.710;9.392;2022-11-20T14:40:33;11.10;90.50
814;DHT22;389;48.710;9.392;2022-11-20T14:43:01;10.90;90.40
814;DHT22;389;48.710;9.392;2022-11-20T14:45:27;10.70;90.40
814;DHT22;389;48.710;9.392;2022-11-20T14:47:55;10.60;90.60
814;DHT22;389;48.710;9.392;2022-11-20T14:50:25;10.50;90.90
814;DHT22;389;48.710;9.392;2022-11-20T14:52:53;10.40;91.00
814;DHT22;389;48.710;9.392;2022-11-20T14:55:31;10.30;91.10
814;DHT22;389;48.710;9.392;2022-11-20T14:58:21;10.20;91.00
814;DHT22;389;48.710;9.392;2022-11-20T15:00:55;10.10;91.20
814;DHT22;389;48.710;9.392;2022-11-20T15:03:21;10.00;91.30
814;DHT22;389;48.710;9.392;2022-11-20T15:05:48;9.90;91.80
814;DHT22;389;48.710;9.392;2022-11-20T15:08:14;9.90;91.80
814;DHT22;389;48.710;9.392;2022-11-20T15:10:50;9.80;92.10
814;DHT22;389;48.710;9.392;2022-11-20T15:15:56;9.60;92.40
814;DHT22;389;48.710;9.392;2022-11-20T15:18:32;9.40;92.40
814;DHT22;389;48.710;9.392;2022-11-20T15:21:02;9.30;92.30
814;DHT22;389;48.710;9.392;2022-11-20T15:23:29;9.20;92.60
814;DHT22;389;48.710;9.392;2022-11-20T15:25:54;9.30;92.90
814;DHT22;389;48.710;9.392;2022-11-20T15:28:21;9.10;92.90
814;DHT22;389;48.710;9.392;2022-11-20T15:30:49;9.10;92.90
814;DHT22;389;48.710;9.392;2022-11-20T15:33:16;9.10;93.20
814;DHT22;389;48.710;9.392;2022-11-20T15:35:42;9.10;93.50
814;DHT22;389;48.710;9.392;2022-11-20T15:38:08;9.00;93.70
814;DHT22;389;48.710;9.392;2022-11-20T15:40:34;9.00;94.20
814;DHT22;389;48.710;9.392;2022-11-20T15:42:59;9.00;94.40
814;DHT22;389;48.710;9.392;2022-11-20T15:45:50;8.90;94.50
814;DHT22;389;48.710;9.392;2022-11-20T15:51:35;8.80;94.90
814;DHT22;389;48.710;9.392;2022-11-20T15:54:05;8.80;95.20
814;DHT22;389;48.710;9.392;2022-11-20T15:56:34;8.70;95.40
814;DHT22;389;48.710;9.392;2022-11-20T15:59:00;8.60;95.70
814;DHT22;389;48.710;9.392;2022-11-20T16:01:25;8.60;95.70
814;DHT22;389;48.710;9.392;2022-11-20T16:03:51;8.50;95.70
814;DHT22;389;48.710;9.392;2022-11-20T16:06:17;8.50;95.70
814;DHT22;389;48.710;9.392;2022-11-20T16:08:43;8.40;95.70
814;DHT22;389;48.710;9.392;2022-11-20T16:11:12;8.30;95.70
814;DHT22;389;48.710;9.392;2022-11-20T16:13:38;8.20;95.70
814;DHT22;389;48.710;9.392;2022-11-20T16:16:33;8.10;96.00
814;DHT22;389;48.710;9.392;2022-11-20T16:18:59;8.00;95.90
814;DHT22;389;48.710;9.392;2022-11-20T16:21:26;7.90;96.10
814;DHT22;389;48.710;9.392;2022-11-20T16:24:02;7.90;96.30
814;DHT22;389;48.710;9.392;2022-11-20T16:26:29;7.90;96.60
814;DHT22;389;48.710;9.392;2022-11-20T16:28:55;7.80;96.80
814;DHT22;389;48.710;9.392;2022-11-20T16:31:21;7.80;97.00
814;DHT22;389;48.710;9.392;2022-11-20T16:33:52;7.80;97.20
814;DHT22;389;48.710;9.392;2022-11-20T16:36:18;7.80;97.40
814;DHT22;389;48.710;9.392;2022-11-20T16:38:44;7.80;97.70
814;DHT22;389;48.710;9.392;2022-11-20T16:41:12;7.80;97.90
814;DHT22;389;48.710;9.392;2022-11-20T16:43:48;7.80;98.20
814;DHT22;389;48.710;9.392;2022-11-20T16:46:15;7.80;98.30
814;DHT22;389;48.710;9.392;2022-11-20T16:48:40;7.80;98.40
814;DHT22;389;48.710;9.392;2022-11-20T16:51:13;7.80;98.50
814;DHT22;389;48.710;9.392;2022-11-20T16:53:38;7.80;98.70
814;DHT22;389;48.710;9.392;2022-11-20T16:56:15;7.80;98.70
814;DHT22;389;48.710;9.392;2022-11-20T16:58:42;8.00;98.80
814;DHT22;389;48.710;9.392;2022-11-20T17:01:08;7.80;98.80
814;DHT22;389;48.710;9.392;2022-11-20T17:03:39;7.90;98.90
814;DHT22;389;48.710;9.392;2022-11-20T17:06:13;7.90;98.90
814;DHT22;389;48.710;9.392;2022-11-20T17:08:40;7.80;98.90
814;DHT22;389;48.710;9.392;2022-11-20T17:11:07;7.80;98.90
814;DHT22;389;48.710;9.392;2022-11-20T17:13:34;7.90;99.00
814;DHT22;389;48.710;9.392;2022-11-20T17:16:01;7.80;99.00
814;DHT22;389;48.710;9.392;2022-11-20T17:18:27;7.80;99.10
814;DHT22;389;48.710;9.392;2022-11-20T17:20:53;7.80;99.50
814;DHT22;389;48.710;9.392;2022-11-20T17:23:20;7.70;99.20
814;DHT22;389;48.710;9.392;2022-11-20T17:25:45;7.70;99.20
814;DHT22;389;48.710;9.392;2022-11-20T17:28:11;7.60;99.20
814;DHT22;389;48.710;9.392;2022-11-20T17:30:49;7.60;99.30
814;DHT22;389;48.710;9.392;2022-11-20T17:33:15;7.60;99.30
814;DHT22;389;48.710;9.392;2022-11-20T17:35:41;7.60;99.40
814;DHT22;389;48.710;9.392;2022-11-20T17:38:11;7.50;99.40
814;DHT22;389;48.710;9.392;2022-11-20T17:40:37;7.50;99.40
814;DHT22;389;48.710;9.392;2022-11-20T17:43:03;7.50;99.40
814;DHT22;389;48.710;9.392;2022-11-20T17:45:28;7.50;99.50
814;DHT22;389;48.710;9.392;2022-11-20T17:47:54;7.50;99.50
814;DHT22;389;48.710;9.392;2022-11-20T17:50:19;7.40;99.60
814;DHT22;389;48.710;9.392;2022-11-20T17:52:45;7.40;99.70
814;DHT22;389;48.710;9.392;2022-11-20T17:55:11;7.40;99.70
814;DHT22;389;48.710;9.392;2022-11-20T17:57:40;7.40;99.80
814;DHT22;389;48.710;9.392;2022-11-20T18:00:20;7.30;99.80
814;DHT22;389;48.710;9.392;2022-11-20T18:02:46;7.30;99.90
814;DHT22;389;48.710;9.392;2022-11-20T18:05:12;7.30;99.90
814;DHT22;389;48.710;9.392;2022-11-20T18:07:38;7.40;99.90
814;DHT22;389;48.710;9.392;2022-11-20T18:10:06;7.40;99.90
814;DHT22;389;48.710;9.392;2022-11-20T18:12:32;7.40;99.90
814;DHT22;389;48.710;9.392;2022-11-20T18:14:58;7.40;99.90
814;DHT22;389;48.710;9.392;2022-11-20T18:17:24;7.40;99.90
814;DHT22;389;48.710;9.392;2022-11-20T18:19:49;7.40;99.90
814;DHT22;389;48.710;9.392;2022-11-20T18:22:17;7.40;99.90
814;DHT22;389;48.710;9.392;2022-11-20T18:24:43;7.50;99.90
814;DHT22;389;48.710;9.392;2022-11-20T18:27:18;7.50;99.70
814;DHT22;389;48.710;9.392;2022-11-20T18:29:45;7.50;99.50
814;DHT22;389;48.710;9.392;2022-11-20T18:32:12;7.70;99.60
814;DHT22;389;48.710;9.392;2022-11-20T18:34:38;7.60;99.50
814;DHT22;389;48.710;9.392;2022-11-20T18:37:03;7.70;99.50
814;DHT22;389;48.710;9.392;2022-11-20T18:39:29;7.70;99.40
814;DHT22;389;48.710;9.392;2022-11-20T18:41:54;7.70;99.20
814;DHT22;389;48.710;9.392;2022-11-20T18:44:39;7.70;98.70
814;DHT22;389;48.710;9.392;2022-11-20T18:47:25;7.80;98.40
814;DHT22;389;48.710;9.392;2022-11-20T18:49:53;7.80;97.80
814;DHT22;389;48.710;9.392;2022-11-20T18:52:21;7.90;97.70
814;DHT22;389;48.710;9.392;2022-11-20T18:54:47;7.90;97.80
814;DHT22;389;48.710;9.392;2022-11-20T18:57:15;7.90;97.80
814;DHT22;389;48.710;9.392;2022-11-20T18:59:42;7.90;97.80
814;DHT22;389;48.710;9.392;2022-11-20T19:02:15;8.00;97.90
814;DHT22;389;48.710;9.392;2022-11-20T19:04:41;8.00;98.10
814;DHT22;389;48.710;9.392;2022-11-20T19:07:07;7.90;98.30
814;DHT22;389;48.710;9.392;2022-11-20T19:09:37;8.00;98.40
814;DHT22;389;48.710;9.392;2022-11-20T19:12:03;8.00;98.50
814;DHT22;389;48.710;9.392;2022-11-20T19:14:28;7.90;97.70
814;DHT22;389;48.710;9.392;2022-11-20T19:16:55;7.90;96.80
814;DHT22;389;48.710;9.392;2022-11-20T19:19:21;7.90;96.40
814;DHT22;389;48.710;9.392;2022-11-20T19:21:47;7.90;96.60
814;DHT22;389;48.710;9.392;2022-11-20T19:24:13;8.00;96.40
814;DHT22;389;48.710;9.392;2022-11-20T19:26:38;7.90;96.50
814;DHT22;389;48.710;9.392;2022-11-20T19:29:06;7.90;96.20
814;DHT22;389;48.710;9.392;2022-11-20T19:31:32;7.90;96.60
814;DHT22;389;48.710;9.392;2022-11-20T19:34:00;7.90;96.30
814;DHT22;389;48.710;9.392;2022-11-20T19:36:37;7.90;96.70
814;DHT22;389;48.710;9.392;2022-11-20T19:39:05;7.80;96.50
814;DHT22;389;48.710;9.392;2022-11-20T19:41:32;7.70;96.80
814;DHT22;389;48.710;9.392;2022-11-20T19:44:13;7.70;97.00
814;DHT22;389;48.710;9.392;2022-11-20T19:46:39;7.60;97.10
814;DHT22;389;48.710;9.392;2022-11-20T19:49:07;7.60;97.30
814;DHT22;389;48.710;9.392;2022-11-20T19:51:40;7.60;97.60
814;DHT22;389;48.710;9.392;2022-11-20T19:54:09;7.60;97.40
814;DHT22;389;48.710;9.392;2022-11-20T19:56:34;7.70;97.10
814;DHT22;389;48.710;9.392;2022-11-20T19:59:00;7.70;97.30
814;DHT22;389;48.710;9.392;2022-11-20T20:01:28;7.60;97.30
814;DHT22;389;48.710;9.392;2022-11-20T20:03:56;7.60;97.30
814;DHT22;389;48.710;9.392;2022-11-20T20:06:27;7.60;97.30
814;DHT22;389;48.710;9.392;2022-11-20T20:09:02;7.60;97.10
814;DHT22;389;48.710;9.392;2022-11-20T20:11:30;7.60;97.20
814;DHT22;389;48.710;9.392;2022-11-20T20:14:00;7.60;97.20
814;DHT22;389;48.710;9.392;2022-11-20T20:16:26;7.60;97.20
814;DHT22;389;48.710;9.392;2022-11-20T20:18:54;7.60;96.90
814;DHT22;389;48.710;9.392;2022-11-20T20:21:20;7.70;97.10
814;DHT22;389;48.710;9.392;2022-11-20T20:23:50;7.70;96.70
814;DHT22;389;48.710;9.392;2022-11-20T20:26:15;7.70;96.60
814;DHT22;389;48.710;9.392;2022-11-20T20:28:41;7.70;96.60
814;DHT22;389;48.710;9.392;2022-11-20T20:31:12;7.70;96.80
814;DHT22;389;48.710;9.392;2022-11-20T20:33:40;7.70;96.80
814;DHT22;389;48.710;9.392;2022-11-20T20:36:08;7.80;96.50
814;DHT22;389;48.710;9.392;2022-11-20T20:38:34;7.70;96.50
814;DHT22;389;48.710;9.392;2022-11-20T20:41:02;7.80;96.40
814;DHT22;389;48.710;9.392;2022-11-20T20:43:30;7.80;96.50
814;DHT22;389;48.710;9.392;2022-11-20T20:45:57;7.80;96.50
814;DHT22;389;48.710;9.392;2022-11-20T20:48:24;7.80;96.40
814;DHT22;389;48.710;9.392;2022-11-20T20:50:59;7.70;96.50
814;DHT22;389;48.710;9.392;2022-11-20T20:53:29;7.70;96.60
814;DHT22;389;48.710;9.392;2022-11-20T20:55:59;7.70;96.40
814;DHT22;389;48.710;9.392;2022-11-20T20:58:26;7.70;96.60
814;DHT22;389;48.710;9.392;2022-11-20T21:00:53;7.70;96.70
814;DHT22;389;48.710;9.392;2022-11-20T21:03:19;7.70;96.90
814;DHT22;389;48.710;9.392;2022-11-20T21:05:45;7.70;97.10
814;DHT22;389;48.710;9.392;2022-11-20T21:08:11;7.70;97.10
814;DHT22;389;48.710;9.392;2022-11-20T21:10:59;7.70;97.20
814;DHT22;389;48.710;9.392;2022-11-20T21:13:25;7.80;97.30
814;DHT22;389;48.710;9.392;2022-11-20T21:15:51;7.60;97.10
814;DHT22;389;48.710;9.392;2022-11-20T21:18:20;7.60;97.00
814;DHT22;389;48.710;9.392;2022-11-20T21:20:47;7.60;97.00
814;DHT22;389;48.710;9.392;2022-11-20T21:23:32;7.60;97.00
814;DHT22;389;48.710;9.392;2022-11-20T21:26:08;7.60;97.00
814;DHT22;389;48.710;9.392;2022-11-20T21:28:35;7.60;97.00
814;DHT22;389;48.710;9.392;2022-11-20T21:31:19;7.60;96.80
814;DHT22;389;48.710;9.392;2022-11-20T21:33:49;7.60;96.60
814;DHT22;389;48.710;9.392;2022-11-20T21:36:17;7.60;96.70
814;DHT22;389;48.710;9.392;2022-11-20T21:38:44;7.60;96.70
814;DHT22;389;48.710;9.392;2022-11-20T21:41:11;7.60;96.60
814;DHT22;389;48.710;9.392;2022-11-20T21:43:37;7.60;96.70
814;DHT22;389;48.710;9.392;2022-11-20T21:46:05;7.60;96.80
814;DHT22;389;48.710;9.392;2022-11-20T21:48:32;7.60;96.70
814;DHT22;389;48.710;9.392;2022-11-20T21:51:06;7.50;96.60
814;DHT22;389;48.710;9.392;2022-11-20T21:53:33;7.50;96.60
814;DHT22;389;48.710;9.392;2022-11-20T21:55:58;7.40;96.80
814;DHT22;389;48.710;9.392;2022-11-20T21:58:24;7.30;97.00
814;DHT22;389;48.710;9.392;2022-11-20T22:00:50;7.20;97.10
814;DHT22;389;48.710;9.392;2022-11-20T22:03:16;7.10;97.30
814;DHT22;389;48.710;9.392;2022-11-20T22:05:42;7.00;97.40
814;DHT22;389;48.710;9.392;2022-11-20T22:08:07;6.90;97.50
814;DHT22;389;48.710;9.392;2022-11-20T22:10:33;6.90;97.70
814;DHT22;389;48.710;9.392;2022-11-20T22:12:59;6.90;97.90
814;DHT22;389;48.710;9.392;2022-11-20T22:15:43;6.90;98.00
814;DHT22;389;48.710;9.392;2022-11-20T22:18:09;6.90;98.10
814;DHT22;389;48.710;9.392;2022-11-20T22:20:41;6.80;98.10
814;DHT22;389;48.710;9.392;2022-11-20T22:23:07;6.80;98.20
814;DHT22;389;48.710;9.392;2022-11-20T22:25:32;6.80;98.20
814;DHT22;389;48.710;9.392;2022-11-20T22:27:58;6.80;98.30
814;DHT22;389;48.710;9.392;2022-11-20T22:30:24;6.90;98.60
814;DHT22;389;48.710;9.392;2022-11-20T22:32:51;6.90;98.60
814;DHT22;389;48.710;9.392;2022-11-20T22:35:21;6.90;98.60
814;DHT22;389;48.710;9.392;2022-11-20T22:37:50;6.90;98.60
814;DHT22;389;48.710;9.392;2022-11-20T22:40:16;7.00;98.60
814;DHT22;389;48.710;9.392;2022-11-20T22:42:45;7.00;98.60
814;DHT22;389;48.710;9.392;2022-11-20T22:45:11;7.00;98.60
814;DHT22;389;48.710;9.392;2022-11-20T22:47:38;7.10;98.70
814;DHT22;389;48.710;9.392;2022-11-20T22:50:04;7.10;99.00
814;DHT22;389;48.710;9.392;2022-11-20T22:52:30;7.10;98.70
814;DHT22;389;48.710;9.392;2022-11-20T22:54:55;7.20;98.70
814;DHT22;389;48.710;9.392;2022-11-20T22:57:21;7.20;98.70
814;DHT22;389;48.710;9.392;2022-11-20T22:59:47;7.20;98.60
814;DHT22;389;48.710;9.392;2022-11-20T23:02:12;7.30;98.70
814;DHT22;389;48.710;9.392;2022-11-20T23:04:38;7.30;98.70
814;DHT22;389;48.710;9.392;2022-11-20T23:07:03;7.30;98.70
814;DHT22;389;48.710;9.392;2022-11-20T23:09:29;7.20;98.70
814;DHT22;389;48.710;9.392;2022-11-20T23:11:54;7.20;98.80
814;DHT22;389;48.710;9.392;2022-11-20T23:14:20;7.20;98.80
814;DHT22;389;48.710;9.392;2022-11-20T23:16:46;7.20;98.80
814;DHT22;389;48.710;9.392;2022-11-20T23:19:12;7.10;98.80
814;DHT22;389;48.710;9.392;2022-11-20T23:21:39;7.10;98.90
814;DHT22;389;48.710;9.392;2022-11-20T23:24:05;7.10;98.90
814;DHT22;389;48.710;9.392;2022-11-20T23:26:34;7.10;98.90
814;DHT22;389;48.710;9.392;2022-11-20T23:29:00;7.10;98.90
814;DHT22;389;48.710;9.392;2022-11-20T23:31:27;7.10;99.00
814;DHT22;389;48.710;9.392;2022-11-20T23:33:53;7.10;98.90
814;DHT22;389;48.710;9.392;2022-11-20T23:36:19;7.10;98.90